sensor_id;sensor_type;location;lat;lon;timestamp;pressure;altitude;pressure_sealevel;temperature;humidity
63096;BME280;49184;55.596;37.770;2023-12-04T04:17:10;98752.25;;;-4.89;66.36
63096;BME280;49184;55.596;37.770;2023-12-04T04:20:57;98720.81;;;-5.29;67.18
63096;BME280;49184;55.596;37.770;2023-12-04T04:23:27;98688.88;;;-5.48;68.82
63096;BME280;49184;55.596;37.770;2023-12-04T04:26:19;98776.16;;;-4.83;67.47
63096;BME280;49184;55.596;37.770;2023-12-04T04:28:51;98723.97;;;-5.21;67.10
63096;BME280;49184;55.596;37.770;2023-12-04T04:31:45;98774.59;;;-4.90;67.19
63096;BME280;49184;55.596;37.770;2023-12-04T04:34:24;98654.50;;;-5.68;67.18
63096;BME280;49184;55.596;37.770;2023-12-04T04:37:16;98792.31;;;-4.66;67.09
63096;BME280;49184;55.596;37.770;2023-12-04T04:52:10;98801.13;;;-4.12;66.11
63096;BME280;49184;55.596;37.770;2023-12-04T04:55:58;98726.13;;;-4.69;64.93
63096;BME280;49184;55.596;37.770;2023-12-04T04:58:24;98809.81;;;-4.40;65.10
63096;BME280;49184;55.596;37.770;2023-12-04T05:01:10;98802.00;;;-4.53;65.59
63096;BME280;49184;55.596;37.770;2023-12-04T05:04:12;98770.13;;;-4.78;66.17
63096;BME280;49184;55.596;37.770;2023-12-04T05:10:10;98814.69;;;-4.67;66.34
63096;BME280;49184;55.596;37.770;2023-12-04T05:20:30;98826.91;;;-4.59;66.57
63096;BME280;49184;55.596;37.770;2023-12-04T05:22:58;98777.34;;;-4.97;66.51
63096;BME280;49184;55.596;37.770;2023-12-04T05:25:33;98740.28;;;-5.29;66.69
63096;BME280;49184;55.596;37.770;2023-12-04T05:28:04;98800.59;;;-4.86;66.91
63096;BME280;49184;55.596;37.770;2023-12-04T05:30:39;98819.97;;;-4.79;66.91
63096;BME280;49184;55.596;37.770;2023-12-04T05:33:05;98809.94;;;-4.65;66.37
63096;BME280;49184;55.596;37.770;2023-12-04T05:35:32;98766.56;;;-5.02;65.86
63096;BME280;49184;55.596;37.770;2023-12-04T05:38:00;98834.66;;;-4.58;66.26
63096;BME280;49184;55.596;37.770;2023-12-04T05:46:17;98797.03;;;-5.10;66.36
63096;BME280;49184;55.596;37.770;2023-12-04T05:49:19;98869.50;;;-4.53;65.95
63096;BME280;49184;55.596;37.770;2023-12-04T05:51:51;98792.06;;;-5.06;66.33
63096;BME280;49184;55.596;37.770;2023-12-04T05:57:38;98894.72;;;-4.37;65.83
63096;BME280;49184;55.596;37.770;2023-12-04T06:00:42;98811.13;;;-4.91;66.24
63096;BME280;49184;55.596;37.770;2023-12-04T06:03:13;98802.75;;;-4.94;65.37
63096;BME280;49184;55.596;37.770;2023-12-04T06:06:03;98896.94;;;-4.34;65.46
63096;BME280;49184;55.596;37.770;2023-12-04T06:08:53;98910.19;;;-4.27;65.55
63096;BME280;49184;55.596;37.770;2023-12-04T06:12:34;98831.44;;;-4.78;65.06
63096;BME280;49184;55.596;37.770;2023-12-04T06:15:08;98915.53;;;-4.27;65.09
63096;BME280;49184;55.596;37.770;2023-12-04T06:17:53;98892.53;;;-4.58;65.04
63096;BME280;49184;55.596;37.770;2023-12-04T06:20:21;98881.75;;;-4.63;64.96
63096;BME280;49184;55.596;37.770;2023-12-04T06:22:58;98906.09;;;-4.60;65.26
63096;BME280;49184;55.596;37.770;2023-12-04T06:25:29;98916.28;;;-4.38;65.00
63096;BME280;49184;55.596;37.770;2023-12-04T06:28:22;98902.44;;;-4.47;64.61
63096;BME280;49184;55.596;37.770;2023-12-04T06:31:16;98944.41;;;-4.24;63.95
63096;BME280;49184;55.596;37.770;2023-12-04T06:34:02;98932.72;;;-4.41;64.34
63096;BME280;49184;55.596;37.770;2023-12-04T06:36:56;98947.75;;;-4.29;63.78
63096;BME280;49184;55.596;37.770;2023-12-04T06:40:00;98888.66;;;-4.92;64.36
63096;BME280;49184;55.596;37.770;2023-12-04T06:43:12;98958.50;;;-4.35;64.81
63096;BME280;49184;55.596;37.770;2023-12-04T06:46:00;98943.66;;;-4.43;64.55
63096;BME280;49184;55.596;37.770;2023-12-04T06:49:07;98961.09;;;-4.29;64.29
63096;BME280;49184;55.596;37.770;2023-12-04T06:51:34;98973.28;;;-4.33;64.33
63096;BME280;49184;55.596;37.770;2023-12-04T06:54:02;98928.69;;;-4.62;64.21
63096;BME280;49184;55.596;37.770;2023-12-04T06:56:28;98976.31;;;-4.29;64.40
63096;BME280;49184;55.596;37.770;2023-12-04T07:02:13;98974.69;;;-4.30;64.05
63096;BME280;49184;55.596;37.770;2023-12-04T07:04:51;98976.41;;;-4.24;65.04
63096;BME280;49184;55.596;37.770;2023-12-04T07:16:43;98981.09;;;-4.19;64.19
63096;BME280;49184;55.596;37.770;2023-12-04T07:19:23;99006.84;;;-3.95;63.60
63096;BME280;49184;55.596;37.770;2023-12-04T07:40:54;98956.22;;;-4.32;62.66
63096;BME280;49184;55.596;37.770;2023-12-04T07:46:52;98975.53;;;-4.18;61.73
63096;BME280;49184;55.596;37.770;2023-12-04T07:49:37;99044.75;;;-3.86;62.32
63096;BME280;49184;55.596;37.770;2023-12-04T07:52:30;98954.31;;;-4.43;62.47
63096;BME280;49184;55.596;37.770;2023-12-04T07:55:25;99060.88;;;-3.81;62.38
63096;BME280;49184;55.596;37.770;2023-12-04T07:57:51;99041.78;;;-3.96;62.79
63096;BME280;49184;55.596;37.770;2023-12-04T08:01:43;99027.13;;;-4.24;62.77
63096;BME280;49184;55.596;37.770;2023-12-04T08:04:59;99072.88;;;-4.02;64.40
63096;BME280;49184;55.596;37.770;2023-12-04T08:07:30;99069.06;;;-3.94;63.28
63096;BME280;49184;55.596;37.770;2023-12-04T08:10:32;99051.78;;;-3.92;63.00
63096;BME280;49184;55.596;37.770;2023-12-04T08:13:23;98997.28;;;-4.33;62.39
63096;BME280;49184;55.596;37.770;2023-12-04T08:15:51;99050.63;;;-4.14;62.97
63096;BME280;49184;55.596;37.770;2023-12-04T08:41:07;99049.38;;;-4.49;63.65
63096;BME280;49184;55.596;37.770;2023-12-04T08:43:33;99020.91;;;-4.55;63.88
63096;BME280;49184;55.596;37.770;2023-12-04T08:46:20;99087.19;;;-3.96;63.12
63096;BME280;49184;55.596;37.770;2023-12-04T08:49:12;99104.28;;;-3.86;62.86
63096;BME280;49184;55.596;37.770;2023-12-04T08:52:11;99086.50;;;-3.92;62.62
63096;BME280;49184;55.596;37.770;2023-12-04T13:36:42;99341.22;;;-4.25;63.41
63096;BME280;49184;55.596;37.770;2023-12-04T13:39:35;99338.06;;;-4.40;63.46
63096;BME280;49184;55.596;37.770;2023-12-04T13:42:32;99390.94;;;-3.98;63.24
63096;BME280;49184;55.596;37.770;2023-12-04T13:48:52;99361.22;;;-4.34;63.93
63096;BME280;49184;55.596;37.770;2023-12-04T13:51:43;99402.09;;;-4.08;63.07
63096;BME280;49184;55.596;37.770;2023-12-04T13:55:15;99284.81;;;-4.91;63.70
63096;BME280;49184;55.596;37.770;2023-12-04T14:11:01;99340.53;;;-4.77;63.99
63096;BME280;49184;55.596;37.770;2023-12-04T14:14:04;99387.31;;;-4.42;64.15
63096;BME280;49184;55.596;37.770;2023-12-04T14:16:55;99437.81;;;-4.03;63.71
63096;BME280;49184;55.596;37.770;2023-12-04T14:19:51;99434.94;;;-4.08;63.74
63096;BME280;49184;55.596;37.770;2023-12-04T14:22:48;99438.13;;;-4.24;64.45
63096;BME280;49184;55.596;37.770;2023-12-04T14:26:01;99430.13;;;-4.24;64.42
63096;BME280;49184;55.596;37.770;2023-12-04T14:29:10;99418.00;;;-4.20;64.59
63096;BME280;49184;55.596;37.770;2023-12-04T14:31:40;99424.56;;;-4.22;64.63
63096;BME280;49184;55.596;37.770;2023-12-04T16:28:01;99482.53;;;-5.54;66.11
63096;BME280;49184;55.596;37.770;2023-12-04T17:20:50;99556.56;;;-5.16;64.24
63096;BME280;49184;55.596;37.770;2023-12-04T17:39:30;99552.38;;;-5.72;64.79
63096;BME280;49184;55.596;37.770;2023-12-04T18:28:44;99615.84;;;-6.24;66.38
63096;BME280;49184;55.596;37.770;2023-12-04T18:43:53;99568.19;;;-6.60;66.51
63096;BME280;49184;55.596;37.770;2023-12-04T18:54:38;99628.31;;;-6.31;66.68
63096;BME280;49184;55.596;37.770;2023-12-04T20:25:50;99602.56;;;-7.15;64.71
63096;BME280;49184;55.596;37.770;2023-12-04T20:28:59;99633.84;;;-6.89;64.77
